createdAt,value
2023-03-16T00:00:27.453Z,83.71
2023-03-16T00:01:27.130Z,84.09
2023-03-16T00:02:27.143Z,83.81
2023-03-16T00:03:27.053Z,83.71
2023-03-16T00:04:26.940Z,83.62
2023-03-16T00:05:26.877Z,83.62
2023-03-16T00:06:26.823Z,83.62
2023-03-16T00:07:26.867Z,83.62
2023-03-16T00:08:26.708Z,83.42
2023-03-16T00:09:26.671Z,83.62
2023-03-16T00:10:26.876Z,83.62
2023-03-16T00:11:26.555Z,83.52
2023-03-16T00:12:26.462Z,83.62
2023-03-16T00:13:26.425Z,83.42
2023-03-16T00:14:26.390Z,83.71
2023-03-16T00:15:26.347Z,83.90
2023-03-16T00:16:26.407Z,83.81
2023-03-16T00:17:26.168Z,83.23
2023-03-16T00:18:26.108Z,83.81
2023-03-16T00:19:26.047Z,83.81
2023-03-16T00:20:26.315Z,83.62
2023-03-16T00:21:25.925Z,83.14
2023-03-16T00:22:25.874Z,83.14
2023-03-16T00:23:25.810Z,83.23
2023-03-16T00:24:25.756Z,83.14
2023-03-16T00:25:25.691Z,83.14
2023-03-16T00:26:25.632Z,83.14
2023-03-16T00:27:25.579Z,83.23
2023-03-16T00:28:25.511Z,83.52
2023-03-16T00:29:25.448Z,83.23
2023-03-16T00:30:25.898Z,83.33
2023-03-16T00:31:25.350Z,83.23
2023-03-16T00:32:25.335Z,83.23
2023-03-16T00:33:25.211Z,83.23
2023-03-16T00:34:25.152Z,83.42
2023-03-16T00:35:25.086Z,82.95
2023-03-16T00:36:25.038Z,83.33
2023-03-16T00:37:25.023Z,83.23
2023-03-16T00:38:24.915Z,83.42
2023-03-16T00:39:24.852Z,83.42
2023-03-16T00:40:24.922Z,83.23
2023-03-16T00:41:24.735Z,83.23
2023-03-16T00:42:24.670Z,83.52
2023-03-16T00:43:24.617Z,83.23
2023-03-16T00:44:24.562Z,82.86
2023-03-16T00:45:24.498Z,83.52
2023-03-16T00:46:24.490Z,83.33
2023-03-16T00:47:24.374Z,83.04
2023-03-16T00:48:24.317Z,83.04
2023-03-16T00:49:24.253Z,83.14
2023-03-16T00:50:24.193Z,83.14
2023-03-16T00:51:24.140Z,83.23
2023-03-16T00:52:24.080Z,83.23
2023-03-16T00:53:24.011Z,83.62
2023-03-16T00:54:23.954Z,83.23
2023-03-16T00:55:23.916Z,83.42
2023-03-16T00:56:23.853Z,83.04
2023-03-16T00:57:23.775Z,83.04
2023-03-16T00:58:23.716Z,83.04
2023-03-16T00:59:23.656Z,83.04
2023-03-16T01:00:23.596Z,83.23
2023-03-16T01:01:23.542Z,83.14
2023-03-16T01:02:23.789Z,83.14
2023-03-16T01:03:23.527Z,83.42
2023-03-16T01:04:23.353Z,83.42
2023-03-16T01:05:23.297Z,83.42
2023-03-16T01:06:23.250Z,83.14
2023-03-16T01:07:23.180Z,82.95
2023-03-16T01:08:23.121Z,83.33
2023-03-16T01:09:23.065Z,82.86
2023-03-16T01:10:23.002Z,82.95
2023-03-16T01:11:22.947Z,82.86
2023-03-16T01:12:22.891Z,83.14
2023-03-16T01:13:22.827Z,82.86
2023-03-16T01:14:22.769Z,82.86
2023-03-16T01:15:22.719Z,82.67
2023-03-16T01:16:22.713Z,82.76
2023-03-16T01:17:22.597Z,83.04
2023-03-16T01:18:22.526Z,82.86
2023-03-16T01:19:22.465Z,82.67
2023-03-16T01:20:22.406Z,82.76
2023-03-16T01:21:22.346Z,82.76
2023-03-16T01:22:22.289Z,82.86
2023-03-16T01:23:22.226Z,82.67
2023-03-16T01:24:22.166Z,82.67
2023-03-16T01:25:22.117Z,83.04
2023-03-16T01:26:22.050Z,82.67
2023-03-16T01:27:21.990Z,82.86
2023-03-16T01:28:21.939Z,82.48
2023-03-16T01:29:21.870Z,82.86
2023-03-16T01:30:21.806Z,82.67
2023-03-16T01:31:21.820Z,82.67
2023-03-16T01:32:21.689Z,82.48
2023-03-16T01:33:21.629Z,82.67
2023-03-16T01:34:21.569Z,82.38
2023-03-16T01:35:21.543Z,82.48
2023-03-16T01:36:21.461Z,82.48
2023-03-16T01:37:21.405Z,82.48
2023-03-16T01:38:21.338Z,82.86
2023-03-16T01:39:21.273Z,82.76
2023-03-16T01:40:21.213Z,82.57
2023-03-16T01:41:21.158Z,82.57
2023-03-16T01:42:21.098Z,82.86
2023-03-16T01:43:21.032Z,82.86
2023-03-16T01:44:20.986Z,82.67
2023-03-16T01:45:20.914Z,82.67
2023-03-16T01:46:20.880Z,82.76
2023-03-16T01:47:20.800Z,83.04
2023-03-16T01:48:20.734Z,83.04
2023-03-16T01:49:20.684Z,82.95
2023-03-16T01:50:20.615Z,82.57
2023-03-16T01:51:20.557Z,82.95
2023-03-16T01:52:20.495Z,82.95
2023-03-16T01:53:20.436Z,83.04
2023-03-16T01:54:20.378Z,82.57
2023-03-16T01:55:20.321Z,82.67
2023-03-16T01:56:20.254Z,82.86
2023-03-16T01:57:20.197Z,82.67
2023-03-16T01:58:20.139Z,82.76
2023-03-16T01:59:20.080Z,82.76
2023-03-16T02:00:20.137Z,82.86
2023-03-16T02:01:19.988Z,83.04
2023-03-16T02:02:19.901Z,82.53
2023-03-16T02:03:19.840Z,82.57
2023-03-16T02:04:19.793Z,82.67
2023-03-16T02:05:19.746Z,82.62
2023-03-16T02:06:19.664Z,82.38
2023-03-16T02:07:19.599Z,82.38
2023-03-16T02:08:19.539Z,82.34
2023-03-16T02:09:19.497Z,82.28
2023-03-16T02:10:19.419Z,82.67
2023-03-16T02:11:19.382Z,82.15
2023-03-16T02:12:19.306Z,82.43
2023-03-16T02:13:19.243Z,82.34
2023-03-16T02:14:19.179Z,82.38
2023-03-16T02:15:19.123Z,82.15
2023-03-16T02:16:19.136Z,82.15
2023-03-16T02:17:19.001Z,82.62
2023-03-16T02:18:18.940Z,82.57
2023-03-16T02:19:18.884Z,81.96
2023-03-16T02:20:18.824Z,81.96
2023-03-16T02:21:18.763Z,82.53
2023-03-16T02:22:18.710Z,82.05
2023-03-16T02:23:18.763Z,82.05
2023-03-16T02:24:18.589Z,82.05
2023-03-16T02:25:18.541Z,82.05
2023-03-16T02:26:18.470Z,81.96
2023-03-16T02:27:18.414Z,82.05
2023-03-16T02:28:18.342Z,82.05
2023-03-16T02:29:18.289Z,81.96
2023-03-16T02:30:18.232Z,82.15
2023-03-16T02:31:18.251Z,82.15
2023-03-16T02:32:18.114Z,82.24
2023-03-16T02:33:18.047Z,82.43
2023-03-16T02:34:17.984Z,82.15
2023-03-16T02:35:17.937Z,82.34
2023-03-16T02:36:17.864Z,82.15
2023-03-16T02:37:17.813Z,81.96
2023-03-16T02:38:17.743Z,81.77
2023-03-16T02:39:17.698Z,81.67
2023-03-16T02:40:17.632Z,81.96
2023-03-16T02:41:17.583Z,82.15
2023-03-16T02:42:17.514Z,82.15
2023-03-16T02:43:17.460Z,82.24
2023-03-16T02:44:17.390Z,81.77
2023-03-16T02:45:17.332Z,81.96
2023-03-16T02:46:17.312Z,81.96
2023-03-16T02:47:17.208Z,82.15
2023-03-16T02:48:17.162Z,81.96
2023-03-16T02:49:17.087Z,81.77
2023-03-16T02:50:17.028Z,81.96
2023-03-16T02:51:16.975Z,81.86
2023-03-16T02:52:16.906Z,81.77
2023-03-16T02:53:16.861Z,81.77
2023-03-16T02:54:16.802Z,81.77
2023-03-16T02:55:16.730Z,81.86
2023-03-16T02:56:16.668Z,81.58
2023-03-16T02:57:16.614Z,81.86
2023-03-16T02:58:16.549Z,81.86
2023-03-16T02:59:16.492Z,81.77
2023-03-16T03:00:16.428Z,81.86
2023-03-16T03:01:16.369Z,81.38
2023-03-16T03:02:16.340Z,81.38
2023-03-16T03:03:16.291Z,81.38
2023-03-16T03:04:16.204Z,81.86
2023-03-16T03:05:16.164Z,81.38
2023-03-16T03:06:16.073Z,81.58
2023-03-16T03:07:16.007Z,81.67
2023-03-16T03:08:15.952Z,81.67
2023-03-16T03:09:15.892Z,81.38
2023-03-16T03:10:15.839Z,81.48
2023-03-16T03:11:15.768Z,81.58
2023-03-16T03:12:15.706Z,81.67
2023-03-16T03:13:15.651Z,81.48
2023-03-16T03:14:15.589Z,81.77
2023-03-16T03:15:15.533Z,81.48
2023-03-16T03:16:15.509Z,81.48
2023-03-16T03:17:15.412Z,81.86
2023-03-16T03:18:15.347Z,81.67
2023-03-16T03:19:15.295Z,81.48
2023-03-16T03:20:15.241Z,81.48
2023-03-16T03:21:15.171Z,81.86
2023-03-16T03:22:15.107Z,81.86
2023-03-16T03:23:15.055Z,81.58
2023-03-16T03:24:15.008Z,81.96
2023-03-16T03:25:14.931Z,81.77
2023-03-16T03:26:14.892Z,81.29
2023-03-16T03:27:14.824Z,81.38
2023-03-16T03:28:14.749Z,81.38
2023-03-16T03:29:14.694Z,81.38
2023-03-16T03:30:14.636Z,81.38
2023-03-16T03:31:14.615Z,81.38
2023-03-16T03:32:14.531Z,81.38
2023-03-16T03:33:14.449Z,81.38
2023-03-16T03:34:14.393Z,81.38
2023-03-16T03:35:14.334Z,81.48
2023-03-16T03:36:14.280Z,81.67
2023-03-16T03:37:14.217Z,81.20
2023-03-16T03:38:14.149Z,81.48
2023-03-16T03:39:14.088Z,81.48
2023-03-16T03:40:14.044Z,81.48
2023-03-16T03:41:13.977Z,81.10
2023-03-16T03:42:13.912Z,80.91
2023-03-16T03:43:13.851Z,81.20
2023-03-16T03:44:13.786Z,80.82
2023-03-16T03:45:13.745Z,80.82
2023-03-16T03:46:28.483Z,80.82
2023-03-16T03:47:13.648Z,81.10
2023-03-16T03:48:13.547Z,80.82
2023-03-16T03:49:13.490Z,80.82
2023-03-16T03:50:13.430Z,80.82
2023-03-16T03:51:13.388Z,80.82
2023-03-16T03:52:13.316Z,80.63
2023-03-16T03:53:13.258Z,80.82
2023-03-16T03:54:13.187Z,80.82
2023-03-16T03:55:13.125Z,80.82
2023-03-16T03:56:13.070Z,80.91
2023-03-16T03:57:13.019Z,80.63
2023-03-16T03:58:12.949Z,80.91
2023-03-16T03:59:12.888Z,80.63
2023-03-16T04:00:12.833Z,80.82
2023-03-16T04:01:12.769Z,80.63
2023-03-16T04:02:12.876Z,80.82
2023-03-16T04:03:12.809Z,80.63
2023-03-16T04:04:12.585Z,80.82
2023-03-16T04:05:12.531Z,80.91
2023-03-16T04:06:12.472Z,80.63
2023-03-16T04:07:12.401Z,80.82
2023-03-16T04:08:12.357Z,80.82
2023-03-16T04:09:12.288Z,80.91
2023-03-16T04:10:12.230Z,80.63
2023-03-16T04:11:12.183Z,80.82
2023-03-16T04:12:12.106Z,80.63
2023-03-16T04:13:12.056Z,81.10
2023-03-16T04:14:11.987Z,81.20
2023-03-16T04:15:11.936Z,80.91
2023-03-16T04:16:11.930Z,80.72
2023-03-16T04:17:11.807Z,80.63
2023-03-16T04:18:11.747Z,80.82
2023-03-16T04:19:11.681Z,80.72
2023-03-16T04:20:11.627Z,80.63
2023-03-16T04:21:11.566Z,80.82
2023-03-16T04:22:11.502Z,80.96
2023-03-16T04:23:11.439Z,81.10
2023-03-16T04:24:11.396Z,81.67
2023-03-16T04:25:11.601Z,81.29
2023-03-16T04:26:11.259Z,81.01
2023-03-16T04:27:11.205Z,81.48
2023-03-16T04:28:11.145Z,81.67
2023-03-16T04:29:11.084Z,81.48
2023-03-16T04:30:11.022Z,81.38
2023-03-16T04:31:10.989Z,81.48
2023-03-16T04:32:10.905Z,81.20
2023-03-16T04:33:10.841Z,81.29
2023-03-16T04:34:10.785Z,81.29
2023-03-16T04:35:10.727Z,81.38
2023-03-16T04:36:10.702Z,81.48
2023-03-16T04:37:10.687Z,81.38
2023-03-16T04:38:10.544Z,81.38
2023-03-16T04:39:10.559Z,81.48
2023-03-16T04:40:11.026Z,81.38
2023-03-16T04:41:10.373Z,81.38
2023-03-16T04:42:10.304Z,81.58
2023-03-16T04:43:10.244Z,81.58
2023-03-16T04:44:10.179Z,81.67
2023-03-16T04:45:10.138Z,81.20
2023-03-16T04:46:10.126Z,81.25
2023-03-16T04:47:09.999Z,81.38
2023-03-16T04:48:09.946Z,81.77
2023-03-16T04:49:09.898Z,81.77
2023-03-16T04:50:09.829Z,81.48
2023-03-16T04:51:09.771Z,81.67
2023-03-16T04:52:09.702Z,81.73
2023-03-16T04:53:09.639Z,81.77
2023-03-16T04:54:09.580Z,81.35
2023-03-16T04:55:09.527Z,81.38
2023-03-16T04:56:09.476Z,81.86
2023-03-16T04:57:09.395Z,81.29
2023-03-16T04:58:09.339Z,81.38
2023-03-16T04:59:09.281Z,81.48
2023-03-16T05:00:09.216Z,81.48
2023-03-16T05:01:09.169Z,81.58
2023-03-16T05:02:09.094Z,81.38
2023-03-16T05:03:09.043Z,81.25
2023-03-16T05:04:11.555Z,81.29
2023-03-16T05:05:08.977Z,81.25
2023-03-16T05:06:08.856Z,81.38
2023-03-16T05:07:08.799Z,81.29
2023-03-16T05:08:08.743Z,81.38
2023-03-16T05:09:08.675Z,81.58
2023-03-16T05:10:08.621Z,81.58
2023-03-16T05:11:08.555Z,81.29
2023-03-16T05:12:08.509Z,81.48
2023-03-16T05:13:08.437Z,81.67
2023-03-16T05:14:08.372Z,81.58
2023-03-16T05:15:08.311Z,81.48
2023-03-16T05:16:08.397Z,81.67
2023-03-16T05:17:08.197Z,81.38
2023-03-16T05:18:08.137Z,81.58
2023-03-16T05:19:08.083Z,81.48
2023-03-16T05:20:08.028Z,81.58
2023-03-16T05:21:07.978Z,81.58
2023-03-16T05:22:07.902Z,81.86
2023-03-16T05:23:07.832Z,81.86
2023-03-16T05:24:07.785Z,82.01
2023-03-16T05:25:07.709Z,81.58
2023-03-16T05:26:07.652Z,81.58
2023-03-16T05:27:07.591Z,81.38
2023-03-16T05:28:07.541Z,81.67
2023-03-16T05:29:07.477Z,81.86
2023-03-16T05:30:07.413Z,81.86
2023-03-16T05:31:07.385Z,81.86
2023-03-16T05:32:07.291Z,81.67
2023-03-16T05:33:21.794Z,81.58
2023-03-16T05:34:07.175Z,82.05
2023-03-16T05:35:07.122Z,81.82
2023-03-16T05:36:07.057Z,81.82
2023-03-16T05:37:06.994Z,81.73
2023-03-16T05:38:06.967Z,81.73
2023-03-16T05:39:06.872Z,81.92
2023-03-16T05:40:06.824Z,81.82
2023-03-16T05:41:06.749Z,81.92
2023-03-16T05:42:06.687Z,82.01
2023-03-16T05:43:06.628Z,81.92
2023-03-16T05:44:06.580Z,82.10
2023-03-16T05:45:06.543Z,82.20
2023-03-16T05:46:06.555Z,81.82
2023-03-16T05:47:06.562Z,82.20
2023-03-16T05:48:06.347Z,81.82
2023-03-16T05:49:06.274Z,82.20
2023-03-16T05:50:06.215Z,81.92
2023-03-16T05:51:06.155Z,81.92
2023-03-16T05:52:06.092Z,81.92
2023-03-16T05:53:06.025Z,81.92
2023-03-16T05:54:05.972Z,81.92
2023-03-16T05:55:05.908Z,81.82
2023-03-16T05:56:05.848Z,81.38
2023-03-16T05:57:05.789Z,82.10
2023-03-16T05:58:06.034Z,81.73
2023-03-16T05:59:05.668Z,81.82
2023-03-16T06:00:05.630Z,81.92
2023-03-16T06:01:05.553Z,81.92
2023-03-16T06:02:05.512Z,81.92
2023-03-16T06:03:05.578Z,82.20
2023-03-16T06:04:05.454Z,81.92
2023-03-16T06:05:05.305Z,81.82
2023-03-16T06:06:05.242Z,81.92
2023-03-16T06:07:05.183Z,81.82
2023-03-16T06:08:05.168Z,81.82
2023-03-16T06:09:05.069Z,81.92
2023-03-16T06:10:05.011Z,82.01
2023-03-16T06:11:04.949Z,81.92
2023-03-16T06:12:04.907Z,81.82
2023-03-16T06:13:04.822Z,81.92
2023-03-16T06:14:04.768Z,81.82
2023-03-16T06:15:04.722Z,81.73
2023-03-16T06:16:04.727Z,82.01
2023-03-16T06:17:04.578Z,81.73
2023-03-16T06:18:04.533Z,81.92
2023-03-16T06:19:04.465Z,81.92
2023-03-16T06:20:04.397Z,82.01
2023-03-16T06:21:04.361Z,81.92
2023-03-16T06:22:04.344Z,82.01
2023-03-16T06:23:04.231Z,81.92
2023-03-16T06:24:04.164Z,81.92
2023-03-16T06:25:04.105Z,81.92
2023-03-16T06:26:04.083Z,81.92
2023-03-16T06:27:03.989Z,81.82
2023-03-16T06:28:03.927Z,81.92
2023-03-16T06:29:03.861Z,81.82
2023-03-16T06:30:03.803Z,81.82
2023-03-16T06:31:03.746Z,82.20
2023-03-16T06:32:03.711Z,82.29
2023-03-16T06:33:03.731Z,82.20
2023-03-16T06:34:03.583Z,82.10
2023-03-16T06:35:03.510Z,82.10
2023-03-16T06:36:03.515Z,82.10
2023-03-16T06:37:03.373Z,82.10
2023-03-16T06:38:03.311Z,81.73
2023-03-16T06:39:03.261Z,81.73
2023-03-16T06:40:03.200Z,81.82
2023-03-16T06:41:03.130Z,81.82
2023-03-16T06:42:03.116Z,82.29
2023-03-16T06:43:03.018Z,82.20
2023-03-16T06:44:02.957Z,82.29
2023-03-16T06:45:02.892Z,82.29
2023-03-16T06:46:02.959Z,82.20
2023-03-16T06:47:02.782Z,82.10
2023-03-16T06:48:02.725Z,82.29
2023-03-16T06:49:02.681Z,82.10
2023-03-16T06:50:02.597Z,82.10
2023-03-16T06:51:02.528Z,82.29
2023-03-16T06:52:02.487Z,82.20
2023-03-16T06:53:02.411Z,82.20
2023-03-16T06:54:02.352Z,82.01
2023-03-16T06:55:02.316Z,82.10
2023-03-16T06:56:02.232Z,81.63
2023-03-16T06:57:02.167Z,81.92
2023-03-16T06:58:02.149Z,82.10
2023-03-16T06:59:02.089Z,81.92
2023-03-16T07:00:01.992Z,82.01
2023-03-16T07:01:02.041Z,82.01
2023-03-16T07:02:01.959Z,82.01
2023-03-16T07:03:01.818Z,81.92
2023-03-16T07:04:01.931Z,81.82
2023-03-16T07:05:01.710Z,82.49
2023-03-16T07:06:01.626Z,82.01
2023-03-16T07:07:01.570Z,81.92
2023-03-16T07:08:01.517Z,82.01
2023-03-16T07:09:01.457Z,82.01
2023-03-16T07:10:01.385Z,82.10
2023-03-16T07:11:01.325Z,82.10
2023-03-16T07:12:01.262Z,82.01
2023-03-16T07:13:01.196Z,81.82
2023-03-16T07:14:01.141Z,82.10
2023-03-16T07:15:01.077Z,81.92
2023-03-16T07:16:01.023Z,82.49
2023-03-16T07:17:01.036Z,82.10
2023-03-16T07:18:00.911Z,82.01
2023-03-16T07:19:00.833Z,82.01
2023-03-16T07:20:00.791Z,81.92
2023-03-16T07:21:00.714Z,81.92
2023-03-16T07:22:00.650Z,82.29
2023-03-16T07:23:00.594Z,82.39
2023-03-16T07:24:00.539Z,82.39
2023-03-16T07:25:00.469Z,82.39
2023-03-16T07:26:00.411Z,82.39
2023-03-16T07:27:00.353Z,82.01
2023-03-16T07:28:00.290Z,82.77
2023-03-16T07:29:00.237Z,82.68
2023-03-16T07:30:00.168Z,82.77
2023-03-16T07:31:03.822Z,82.77
2023-03-16T07:32:00.130Z,82.29
2023-03-16T07:33:00.064Z,82.68
2023-03-16T07:33:59.930Z,82.49
2023-03-16T07:34:59.871Z,82.20
2023-03-16T07:35:59.926Z,82.68
2023-03-16T07:36:59.749Z,82.87
2023-03-16T07:37:59.696Z,82.68
2023-03-16T07:38:59.635Z,82.68
2023-03-16T07:39:59.565Z,82.58
2023-03-16T07:40:59.500Z,82.58
2023-03-16T07:41:59.450Z,82.77
2023-03-16T07:42:59.384Z,82.77
2023-03-16T07:43:59.326Z,82.96
2023-03-16T07:44:59.264Z,82.77
2023-03-16T07:45:59.275Z,82.96
2023-03-16T07:46:59.139Z,82.58
2023-03-16T07:47:59.084Z,82.58
2023-03-16T07:48:59.030Z,82.49
2023-03-16T07:49:58.974Z,82.49
2023-03-16T07:50:58.898Z,82.58
2023-03-16T07:51:58.853Z,82.68
2023-03-16T07:52:58.780Z,82.68
2023-03-16T07:53:58.739Z,82.68
2023-03-16T07:54:58.660Z,82.77
2023-03-16T07:55:58.600Z,82.58
2023-03-16T07:56:58.569Z,82.58
2023-03-16T07:57:58.478Z,82.87
2023-03-16T07:58:58.418Z,82.87
2023-03-16T07:59:58.355Z,82.58
2023-03-16T08:00:58.295Z,82.49
2023-03-16T08:01:58.313Z,82.58
2023-03-16T08:02:58.175Z,82.58
2023-03-16T08:03:58.159Z,82.68
2023-03-16T08:04:58.057Z,82.58
2023-03-16T08:05:57.993Z,82.58
2023-03-16T08:06:57.934Z,82.58
2023-03-16T08:07:57.886Z,82.68
2023-03-16T08:08:57.813Z,82.58
2023-03-16T08:09:57.757Z,82.96
2023-03-16T08:10:57.686Z,82.58
2023-03-16T08:11:57.638Z,83.06
2023-03-16T08:12:57.651Z,83.06
2023-03-16T08:13:57.510Z,83.25
2023-03-16T08:14:57.454Z,83.15
2023-03-16T08:15:57.421Z,83.34
2023-03-16T08:16:57.335Z,83.25
2023-03-16T08:17:57.273Z,82.96
2023-03-16T08:18:57.211Z,83.34
2023-03-16T08:19:57.159Z,83.34
2023-03-16T08:20:57.090Z,83.06
2023-03-16T08:22:01.483Z,83.34
2023-03-16T08:22:56.972Z,82.96
2023-03-16T08:23:56.919Z,82.96
2023-03-16T08:24:56.853Z,82.96
2023-03-16T08:25:56.792Z,83.00
2023-03-16T08:26:56.739Z,83.06
2023-03-16T08:27:56.675Z,82.96
2023-03-16T08:28:56.682Z,83.25
2023-03-16T08:29:56.550Z,82.96
2023-03-16T08:30:56.516Z,83.25
2023-03-16T08:31:56.554Z,83.34
2023-03-16T08:32:56.390Z,83.25
2023-03-16T08:33:56.324Z,83.06
2023-03-16T08:34:56.249Z,83.62
2023-03-16T08:35:56.290Z,83.29
2023-03-16T08:36:56.129Z,83.25
2023-03-16T08:37:56.067Z,83.19
2023-03-16T08:39:06.404Z,83.25
2023-03-16T08:39:55.948Z,83.44
2023-03-16T08:40:55.890Z,83.15
2023-03-16T08:41:55.826Z,83.19
2023-03-16T08:42:55.770Z,83.25
2023-03-16T08:43:55.701Z,82.91
2023-03-16T08:44:55.650Z,83.29
2023-03-16T08:45:55.579Z,83.15
2023-03-16T08:46:55.573Z,83.19
2023-03-16T08:47:55.465Z,83.19
2023-03-16T08:48:55.436Z,83.10
2023-03-16T08:49:55.349Z,83.10
2023-03-16T08:50:55.303Z,83.48
2023-03-16T08:51:55.223Z,83.67
2023-03-16T08:52:55.164Z,83.58
2023-03-16T08:53:55.108Z,83.76
2023-03-16T08:55:02.957Z,83.76
2023-03-16T08:55:55.024Z,83.72
2023-03-16T08:56:54.921Z,83.76
2023-03-16T08:57:54.863Z,83.76
2023-03-16T08:58:54.801Z,83.67
2023-03-16T08:59:54.736Z,83.67
2023-03-16T09:00:54.674Z,83.58
2023-03-16T09:01:54.648Z,83.39
2023-03-16T09:02:54.556Z,83.76
2023-03-16T09:03:54.523Z,84.05
2023-03-16T09:04:54.433Z,83.48
2023-03-16T09:05:54.368Z,83.58
2023-03-16T09:07:09.773Z,83.76
2023-03-16T09:07:54.267Z,83.48
2023-03-16T09:08:54.200Z,83.58
2023-03-16T09:09:54.129Z,83.76
2023-03-16T09:10:54.071Z,83.76
2023-03-16T09:11:54.018Z,84.24
2023-03-16T09:12:53.962Z,84.24
2023-03-16T09:13:53.892Z,83.95
2023-03-16T09:14:53.852Z,84.33
2023-03-16T09:15:53.823Z,84.24
2023-03-16T09:16:53.709Z,84.24
2023-03-16T09:17:53.656Z,83.95
2023-03-16T09:18:53.588Z,84.14
2023-03-16T09:19:56.277Z,84.05
2023-03-16T09:20:53.488Z,84.33
2023-03-16T09:21:53.407Z,84.14
2023-03-16T09:22:53.346Z,84.05
2023-03-16T09:23:53.288Z,84.05
2023-03-16T09:24:53.234Z,84.14
2023-03-16T09:25:53.206Z,84.05
2023-03-16T09:26:53.185Z,84.05
2023-03-16T09:27:53.055Z,83.95
2023-03-16T09:28:53.011Z,84.33
2023-03-16T09:29:52.940Z,84.24
2023-03-16T09:30:52.870Z,83.86
2023-03-16T09:31:52.843Z,84.05
2023-03-16T09:32:52.788Z,84.24
2023-03-16T09:33:52.689Z,84.14
2023-03-16T09:34:52.631Z,84.24
2023-03-16T09:35:52.590Z,84.33
2023-03-16T09:36:52.505Z,84.24
2023-03-16T09:38:05.719Z,84.24
2023-03-16T09:38:52.383Z,84.24
2023-03-16T09:39:55.892Z,84.24
2023-03-16T09:40:52.264Z,84.05
2023-03-16T09:41:52.212Z,84.05
2023-03-16T09:42:52.153Z,83.95
2023-03-16T09:43:52.099Z,84.05
2023-03-16T09:44:52.029Z,84.14
2023-03-16T09:45:51.978Z,84.33
2023-03-16T09:46:51.902Z,84.24
2023-03-16T09:47:51.841Z,84.52
2023-03-16T09:48:51.784Z,84.43
2023-03-16T09:49:51.739Z,84.33
2023-03-16T09:50:52.132Z,84.24
2023-03-16T09:51:51.603Z,84.33
2023-03-16T09:52:51.545Z,84.33
2023-03-16T09:53:51.502Z,83.95
2023-03-16T09:54:51.427Z,84.52
2023-03-16T09:55:51.362Z,84.52
2023-03-16T09:56:51.304Z,83.95
2023-03-16T09:57:51.267Z,84.33
2023-03-16T09:58:51.180Z,84.33
2023-03-16T09:59:51.146Z,84.14
2023-03-16T10:00:51.096Z,84.14
2023-03-16T10:01:51.014Z,83.95
2023-03-16T10:02:50.948Z,83.95
2023-03-16T10:03:50.933Z,84.14
2023-03-16T10:04:50.829Z,84.14
2023-03-16T10:05:50.770Z,84.05
2023-03-16T10:06:50.718Z,84.14
2023-03-16T10:07:50.640Z,83.95
2023-03-16T10:08:50.579Z,84.33
2023-03-16T10:09:50.521Z,83.95
2023-03-16T10:10:50.463Z,83.95
2023-03-16T10:11:50.400Z,84.14
2023-03-16T10:12:50.342Z,84.43
2023-03-16T10:13:50.297Z,83.95
2023-03-16T10:14:50.248Z,83.95
2023-03-16T10:15:50.168Z,83.86
2023-03-16T10:16:50.143Z,83.86
2023-03-16T10:17:50.089Z,83.95
2023-03-16T10:18:49.978Z,84.24
2023-03-16T10:19:49.928Z,84.24
2023-03-16T10:20:49.862Z,84.14
2023-03-16T10:21:49.797Z,83.58
2023-03-16T10:22:49.745Z,83.86
2023-03-16T10:23:49.704Z,84.33
2023-03-16T10:24:49.616Z,84.24
2023-03-16T10:25:49.580Z,84.14
2023-03-16T10:26:49.505Z,84.33
2023-03-16T10:27:49.439Z,84.33
2023-03-16T10:28:49.381Z,84.43
2023-03-16T10:29:49.884Z,84.14
2023-03-16T10:30:49.257Z,84.14
2023-03-16T10:31:49.265Z,84.33
2023-03-16T10:32:49.158Z,84.24
2023-03-16T10:33:49.084Z,84.33
2023-03-16T10:34:49.017Z,84.43
2023-03-16T10:35:48.960Z,84.24
2023-03-16T10:36:48.902Z,84.33
2023-03-16T10:37:48.839Z,84.52
2023-03-16T10:38:48.790Z,84.81
2023-03-16T10:39:48.714Z,84.72
2023-03-16T10:40:48.660Z,85.00
2023-03-16T10:41:48.655Z,84.62
2023-03-16T10:42:48.584Z,84.72
2023-03-16T10:43:48.482Z,85.10
2023-03-16T10:44:48.431Z,85.10
2023-03-16T10:45:48.474Z,85.28
2023-03-16T10:46:48.698Z,85.00
2023-03-16T10:47:48.259Z,85.00
2023-03-16T10:48:48.183Z,85.10
2023-03-16T10:49:48.123Z,85.86
2023-03-16T10:50:48.087Z,85.95
2023-03-16T10:51:48.015Z,85.38
2023-03-16T10:52:47.958Z,85.47
2023-03-16T10:53:47.888Z,84.91
2023-03-16T10:54:47.835Z,85.19
2023-03-16T10:55:47.769Z,84.91
2023-03-16T10:56:47.704Z,84.66
2023-03-16T10:57:47.646Z,85.00
2023-03-16T10:58:47.586Z,84.72
2023-03-16T10:59:47.528Z,85.04
2023-03-16T11:00:47.473Z,84.85
2023-03-16T11:01:47.414Z,84.76
2023-03-16T11:02:47.349Z,84.66
2023-03-16T11:03:47.298Z,84.95
2023-03-16T11:04:47.295Z,84.72
2023-03-16T11:05:47.168Z,84.76
2023-03-16T11:06:47.111Z,84.47
2023-03-16T11:07:47.045Z,84.66
2023-03-16T11:08:46.989Z,84.76
2023-03-16T11:09:46.933Z,84.76
2023-03-16T11:10:55.501Z,84.47
2023-03-16T11:11:46.812Z,84.56
2023-03-16T11:12:46.753Z,84.76
2023-03-16T11:13:46.697Z,84.47
2023-03-16T11:14:46.651Z,84.66
2023-03-16T11:15:46.581Z,84.66
2023-03-16T11:16:46.628Z,84.66
2023-03-16T11:17:46.452Z,84.56
2023-03-16T11:18:46.395Z,84.76
2023-03-16T11:19:48.510Z,84.56
2023-03-16T11:20:46.278Z,84.76
2023-03-16T11:21:46.210Z,84.47
2023-03-16T11:22:46.156Z,84.56
2023-03-16T11:23:46.120Z,84.66
2023-03-16T11:24:46.043Z,84.47
2023-03-16T11:25:45.973Z,84.66
2023-03-16T11:26:45.913Z,84.66
2023-03-16T11:27:45.855Z,84.76
2023-03-16T11:28:45.801Z,84.85
2023-03-16T11:29:45.731Z,84.56
2023-03-16T11:30:45.766Z,84.85
2023-03-16T11:31:45.615Z,84.95
2023-03-16T11:32:45.604Z,84.66
2023-03-16T11:33:45.494Z,84.76
2023-03-16T11:34:45.434Z,84.56
2023-03-16T11:35:57.918Z,84.66
2023-03-16T11:36:45.349Z,84.95
2023-03-16T11:37:45.273Z,84.66
2023-03-16T11:38:45.198Z,85.33
2023-03-16T11:39:45.135Z,84.85
2023-03-16T11:40:45.078Z,85.04
2023-03-16T11:41:45.021Z,85.14
2023-03-16T11:42:44.964Z,84.66
2023-03-16T11:43:44.900Z,85.33
2023-03-16T11:44:44.848Z,84.76
2023-03-16T11:45:44.821Z,84.85
2023-03-16T11:46:44.720Z,85.14
2023-03-16T11:47:44.661Z,84.66
2023-03-16T11:48:44.611Z,85.24
2023-03-16T11:49:44.546Z,85.33
2023-03-16T11:50:44.502Z,85.24
2023-03-16T11:51:44.430Z,84.76
2023-03-16T11:52:45.239Z,85.04
2023-03-16T11:53:44.299Z,85.04
2023-03-16T11:54:44.243Z,84.76
2023-03-16T11:55:44.183Z,85.14
2023-03-16T11:56:44.124Z,85.04
2023-03-16T11:57:44.061Z,85.04
2023-03-16T11:58:44.001Z,84.76
2023-03-16T11:59:48.984Z,84.66
2023-03-16T12:00:43.877Z,84.76
2023-03-16T12:01:57.895Z,85.04
2023-03-16T12:02:43.941Z,85.24
2023-03-16T12:03:43.793Z,84.76
2023-03-16T12:04:43.638Z,84.85
2023-03-16T12:05:45.010Z,83.62
2023-03-16T12:06:43.516Z,84.19
2023-03-16T12:07:43.473Z,84.76
2023-03-16T12:08:43.432Z,84.56
2023-03-16T12:09:43.350Z,84.66
2023-03-16T12:10:43.277Z,84.56
2023-03-16T12:11:43.218Z,84.76
2023-03-16T12:12:43.161Z,84.56
2023-03-16T12:13:43.096Z,84.76
2023-03-16T12:14:43.046Z,84.76
2023-03-16T12:15:42.992Z,84.66
2023-03-16T12:16:49.500Z,84.85
2023-03-16T12:17:42.862Z,84.66
2023-03-16T12:18:42.806Z,84.76
2023-03-16T12:19:42.736Z,85.14
2023-03-16T12:20:42.688Z,84.85
2023-03-16T12:21:42.633Z,85.33
2023-03-16T12:22:42.557Z,84.76
2023-03-16T12:23:42.512Z,85.33
2023-03-16T12:24:42.490Z,85.33
2023-03-16T12:25:42.380Z,84.95
2023-03-16T12:26:42.350Z,84.85
2023-03-16T12:27:42.289Z,84.56
2023-03-16T12:28:42.232Z,84.76
2023-03-16T12:29:42.148Z,84.76
2023-03-16T12:30:42.091Z,84.76
2023-03-16T12:31:42.093Z,84.76
2023-03-16T12:32:41.992Z,84.47
2023-03-16T12:33:41.908Z,84.19
2023-03-16T12:34:41.852Z,84.76
2023-03-16T12:35:41.816Z,84.66
2023-03-16T12:36:41.736Z,83.90
2023-03-16T12:37:41.682Z,83.81
2023-03-16T12:38:41.614Z,84.09
2023-03-16T12:39:41.568Z,84.09
2023-03-16T12:40:41.491Z,84.38
2023-03-16T12:41:41.443Z,84.28
2023-03-16T12:42:41.371Z,84.19
2023-03-16T12:43:41.388Z,84.47
2023-03-16T12:44:41.249Z,84.28
2023-03-16T12:45:41.256Z,84.19
2023-03-16T12:46:41.130Z,84.19
2023-03-16T12:47:41.075Z,84.56
2023-03-16T12:48:41.015Z,84.76
2023-03-16T12:49:40.954Z,84.76
2023-03-16T12:50:40.895Z,84.95
2023-03-16T12:51:40.836Z,84.95